sensor_id;sensor_type;location;lat;lon;timestamp;P1;durP1;ratioP1;P2;durP2;ratioP2
27313;SDS011;14800;48.174;9.798;2023-10-31T00:00:37;0.15;;;0.15;;
27313;SDS011;14800;48.174;9.798;2023-10-31T00:03:03;0.40;;;0.20;;
27313;SDS011;14800;48.174;9.798;2023-10-31T00:05:29;0.15;;;0.15;;
27313;SDS011;14800;48.174;9.798;2023-10-31T00:07:54;0.35;;;0.13;;
27313;SDS011;14800;48.174;9.798;2023-10-31T00:10:20;0.68;;;0.57;;
27313;SDS011;14800;48.174;9.798;2023-10-31T00:12:45;0.17;;;0.17;;
27313;SDS011;14800;48.174;9.798;2023-10-31T00:15:11;0.20;;;0.20;;
27313;SDS011;14800;48.174;9.798;2023-10-31T00:17:36;0.30;;;0.20;;
27313;SDS011;14800;48.174;9.798;2023-10-31T00:20:02;1.65;;;0.30;;
27313;SDS011;14800;48.174;9.798;2023-10-31T00:22:28;0.28;;;0.28;;
27313;SDS011;14800;48.174;9.798;2023-10-31T00:24:53;0.40;;;0.40;;
27313;SDS011;14800;48.174;9.798;2023-10-31T00:27:19;0.30;;;0.30;;
27313;SDS011;14800;48.174;9.798;2023-10-31T00:29:45;0.40;;;0.40;;
27313;SDS011;14800;48.174;9.798;2023-10-31T00:32:10;0.45;;;0.38;;
27313;SDS011;14800;48.174;9.798;2023-10-31T00:34:36;0.32;;;0.32;;
27313;SDS011;14800;48.174;9.798;2023-10-31T00:37:02;0.40;;;0.40;;
27313;SDS011;14800;48.174;9.798;2023-10-31T00:39:27;0.43;;;0.40;;
27313;SDS011;14800;48.174;9.798;2023-10-31T00:41:53;0.32;;;0.32;;
27313;SDS011;14800;48.174;9.798;2023-10-31T00:44:19;0.60;;;0.45;;
27313;SDS011;14800;48.174;9.798;2023-10-31T00:46:44;0.82;;;0.50;;
27313;SDS011;14800;48.174;9.798;2023-10-31T00:49:10;0.32;;;0.32;;
27313;SDS011;14800;48.174;9.798;2023-10-31T00:51:35;0.60;;;0.50;;
27313;SDS011;14800;48.174;9.798;2023-10-31T00:54:01;0.40;;;0.40;;
27313;SDS011;14800;48.174;9.798;2023-10-31T00:56:26;0.50;;;0.50;;
27313;SDS011;14800;48.174;9.798;2023-10-31T00:58:52;0.50;;;0.50;;
27313;SDS011;14800;48.174;9.798;2023-10-31T01:01:18;0.57;;;0.57;;
27313;SDS011;14800;48.174;9.798;2023-10-31T01:03:43;0.65;;;0.60;;
27313;SDS011;14800;48.174;9.798;2023-10-31T01:06:09;0.45;;;0.45;;
27313;SDS011;14800;48.174;9.798;2023-10-31T01:08:35;0.77;;;0.50;;
27313;SDS011;14800;48.174;9.798;2023-10-31T01:11:00;0.50;;;0.50;;
27313;SDS011;14800;48.174;9.798;2023-10-31T01:13:26;2.08;;;0.50;;
27313;SDS011;14800;48.174;9.798;2023-10-31T01:15:51;1.70;;;0.50;;
27313;SDS011;14800;48.174;9.798;2023-10-31T01:18:17;1.85;;;0.60;;
27313;SDS011;14800;48.174;9.798;2023-10-31T01:20:43;2.53;;;0.65;;
27313;SDS011;14800;48.174;9.798;2023-10-31T01:23:08;1.20;;;0.50;;
27313;SDS011;14800;48.174;9.798;2023-10-31T01:25:34;0.50;;;0.50;;
27313;SDS011;14800;48.174;9.798;2023-10-31T01:27:59;1.02;;;0.60;;
27313;SDS011;14800;48.174;9.798;2023-10-31T01:30:25;2.05;;;0.60;;
27313;SDS011;14800;48.174;9.798;2023-10-31T01:32:50;1.17;;;0.60;;
27313;SDS011;14800;48.174;9.798;2023-10-31T01:35:16;0.65;;;0.57;;
27313;SDS011;14800;48.174;9.798;2023-10-31T01:37:42;0.65;;;0.65;;
27313;SDS011;14800;48.174;9.798;2023-10-31T01:40:07;0.70;;;0.70;;
27313;SDS011;14800;48.174;9.798;2023-10-31T01:42:33;1.15;;;0.70;;
27313;SDS011;14800;48.174;9.798;2023-10-31T01:44:59;0.60;;;0.60;;
27313;SDS011;14800;48.174;9.798;2023-10-31T01:47:24;0.57;;;0.50;;
27313;SDS011;14800;48.174;9.798;2023-10-31T01:49:50;0.90;;;0.50;;
27313;SDS011;14800;48.174;9.798;2023-10-31T01:52:16;0.63;;;0.60;;
27313;SDS011;14800;48.174;9.798;2023-10-31T01:54:43;0.77;;;0.50;;
27313;SDS011;14800;48.174;9.798;2023-10-31T01:57:09;0.52;;;0.52;;
27313;SDS011;14800;48.174;9.798;2023-10-31T01:59:35;1.20;;;0.55;;
27313;SDS011;14800;48.174;9.798;2023-10-31T02:02:01;0.50;;;0.50;;
27313;SDS011;14800;48.174;9.798;2023-10-31T02:04:28;2.33;;;0.60;;
27313;SDS011;14800;48.174;9.798;2023-10-31T02:06:54;0.80;;;0.47;;
27313;SDS011;14800;48.174;9.798;2023-10-31T02:09:19;1.73;;;0.50;;
27313;SDS011;14800;48.174;9.798;2023-10-31T02:11:49;0.68;;;0.50;;
27313;SDS011;14800;48.174;9.798;2023-10-31T02:14:15;0.55;;;0.50;;
27313;SDS011;14800;48.174;9.798;2023-10-31T02:16:40;0.75;;;0.52;;
27313;SDS011;14800;48.174;9.798;2023-10-31T02:19:06;0.32;;;0.32;;
27313;SDS011;14800;48.174;9.798;2023-10-31T02:21:32;0.52;;;0.52;;
27313;SDS011;14800;48.174;9.798;2023-10-31T02:23:58;1.23;;;0.30;;
27313;SDS011;14800;48.174;9.798;2023-10-31T02:26:29;0.63;;;0.40;;
27313;SDS011;14800;48.174;9.798;2023-10-31T02:28:58;0.38;;;0.30;;
27313;SDS011;14800;48.174;9.798;2023-10-31T02:31:24;1.27;;;0.30;;
27313;SDS011;14800;48.174;9.798;2023-10-31T02:33:50;0.50;;;0.40;;
27313;SDS011;14800;48.174;9.798;2023-10-31T02:36:16;0.57;;;0.30;;
27313;SDS011;14800;48.174;9.798;2023-10-31T02:38:42;0.90;;;0.32;;
27313;SDS011;14800;48.174;9.798;2023-10-31T02:41:07;0.50;;;0.40;;
27313;SDS011;14800;48.174;9.798;2023-10-31T02:43:33;0.40;;;0.40;;
27313;SDS011;14800;48.174;9.798;2023-10-31T02:45:58;1.23;;;0.28;;
27313;SDS011;14800;48.174;9.798;2023-10-31T02:48:25;0.28;;;0.20;;
27313;SDS011;14800;48.174;9.798;2023-10-31T02:50:51;1.70;;;0.30;;
27313;SDS011;14800;48.174;9.798;2023-10-31T02:53:19;1.20;;;0.22;;
27313;SDS011;14800;48.174;9.798;2023-10-31T02:55:45;1.27;;;0.20;;
27313;SDS011;14800;48.174;9.798;2023-10-31T02:58:11;0.52;;;0.30;;
27313;SDS011;14800;48.174;9.798;2023-10-31T03:00:37;0.88;;;0.20;;
27313;SDS011;14800;48.174;9.798;2023-10-31T03:03:02;0.55;;;0.20;;
27313;SDS011;14800;48.174;9.798;2023-10-31T03:05:28;0.40;;;0.30;;
27313;SDS011;14800;48.174;9.798;2023-10-31T03:07:54;0.35;;;0.25;;
27313;SDS011;14800;48.174;9.798;2023-10-31T03:10:20;0.93;;;0.20;;
27313;SDS011;14800;48.174;9.798;2023-10-31T03:12:46;0.45;;;0.20;;
27313;SDS011;14800;48.174;9.798;2023-10-31T03:15:12;1.20;;;0.30;;
27313;SDS011;14800;48.174;9.798;2023-10-31T03:17:38;2.28;;;0.20;;
27313;SDS011;14800;48.174;9.798;2023-10-31T03:20:03;0.20;;;0.10;;
27313;SDS011;14800;48.174;9.798;2023-10-31T03:22:29;0.85;;;0.40;;
27313;SDS011;14800;48.174;9.798;2023-10-31T03:24:55;0.45;;;0.20;;
27313;SDS011;14800;48.174;9.798;2023-10-31T03:27:20;0.43;;;0.20;;
27313;SDS011;14800;48.174;9.798;2023-10-31T03:29:46;0.20;;;0.15;;
27313;SDS011;14800;48.174;9.798;2023-10-31T03:32:12;0.93;;;0.20;;
27313;SDS011;14800;48.174;9.798;2023-10-31T03:34:37;2.63;;;0.10;;
27313;SDS011;14800;48.174;9.798;2023-10-31T03:37:03;0.45;;;0.20;;
27313;SDS011;14800;48.174;9.798;2023-10-31T03:39:29;0.60;;;0.20;;
27313;SDS011;14800;48.174;9.798;2023-10-31T03:41:55;1.48;;;0.30;;
27313;SDS011;14800;48.174;9.798;2023-10-31T03:44:20;0.95;;;0.25;;
27313;SDS011;14800;48.174;9.798;2023-10-31T03:46:46;0.65;;;0.20;;
27313;SDS011;14800;48.174;9.798;2023-10-31T03:49:12;0.43;;;0.20;;
27313;SDS011;14800;48.174;9.798;2023-10-31T03:51:37;0.77;;;0.30;;
27313;SDS011;14800;48.174;9.798;2023-10-31T03:54:03;0.75;;;0.20;;
27313;SDS011;14800;48.174;9.798;2023-10-31T03:56:28;0.50;;;0.20;;
27313;SDS011;14800;48.174;9.798;2023-10-31T03:58:54;0.77;;;0.20;;
27313;SDS011;14800;48.174;9.798;2023-10-31T04:01:19;1.92;;;0.30;;
27313;SDS011;14800;48.174;9.798;2023-10-31T04:03:45;0.60;;;0.20;;
27313;SDS011;14800;48.174;9.798;2023-10-31T04:06:11;1.10;;;0.30;;
27313;SDS011;14800;48.174;9.798;2023-10-31T04:08:37;0.88;;;0.28;;
27313;SDS011;14800;48.174;9.798;2023-10-31T04:11:02;1.20;;;0.13;;
27313;SDS011;14800;48.174;9.798;2023-10-31T04:13:28;0.20;;;0.20;;
27313;SDS011;14800;48.174;9.798;2023-10-31T04:15:54;0.68;;;0.28;;
27313;SDS011;14800;48.174;9.798;2023-10-31T04:18:19;0.28;;;0.20;;
27313;SDS011;14800;48.174;9.798;2023-10-31T04:20:45;0.50;;;0.30;;
27313;SDS011;14800;48.174;9.798;2023-10-31T04:23:10;1.20;;;0.30;;
27313;SDS011;14800;48.174;9.798;2023-10-31T04:25:37;1.55;;;0.50;;
27313;SDS011;14800;48.174;9.798;2023-10-31T04:28:02;0.55;;;0.50;;
27313;SDS011;14800;48.174;9.798;2023-10-31T04:30:28;0.98;;;0.30;;
27313;SDS011;14800;48.174;9.798;2023-10-31T04:32:54;1.75;;;0.30;;
27313;SDS011;14800;48.174;9.798;2023-10-31T04:35:20;1.30;;;0.32;;
27313;SDS011;14800;48.174;9.798;2023-10-31T04:37:45;1.70;;;0.40;;
27313;SDS011;14800;48.174;9.798;2023-10-31T04:40:11;2.05;;;0.38;;
27313;SDS011;14800;48.174;9.798;2023-10-31T04:42:40;1.10;;;0.38;;
27313;SDS011;14800;48.174;9.798;2023-10-31T04:45:06;1.10;;;0.40;;
27313;SDS011;14800;48.174;9.798;2023-10-31T04:47:32;1.02;;;0.63;;
27313;SDS011;14800;48.174;9.798;2023-10-31T04:49:58;1.15;;;0.22;;
27313;SDS011;14800;48.174;9.798;2023-10-31T04:52:23;0.60;;;0.40;;
27313;SDS011;14800;48.174;9.798;2023-10-31T04:54:51;0.65;;;0.40;;
27313;SDS011;14800;48.174;9.798;2023-10-31T04:57:16;1.23;;;0.30;;
27313;SDS011;14800;48.174;9.798;2023-10-31T04:59:42;0.77;;;0.30;;
27313;SDS011;14800;48.174;9.798;2023-10-31T05:02:08;1.10;;;0.45;;
27313;SDS011;14800;48.174;9.798;2023-10-31T05:04:33;0.80;;;0.55;;
27313;SDS011;14800;48.174;9.798;2023-10-31T05:07:02;0.95;;;0.30;;
27313;SDS011;14800;48.174;9.798;2023-10-31T05:09:28;3.10;;;0.40;;
27313;SDS011;14800;48.174;9.798;2023-10-31T05:11:53;1.38;;;0.40;;
27313;SDS011;14800;48.174;9.798;2023-10-31T05:14:19;0.85;;;0.43;;
27313;SDS011;14800;48.174;9.798;2023-10-31T05:16:44;0.40;;;0.30;;
27313;SDS011;14800;48.174;9.798;2023-10-31T05:19:10;1.17;;;0.30;;
27313;SDS011;14800;48.174;9.798;2023-10-31T05:21:36;1.92;;;0.40;;
27313;SDS011;14800;48.174;9.798;2023-10-31T05:24:02;1.17;;;0.38;;
27313;SDS011;14800;48.174;9.798;2023-10-31T05:26:28;0.35;;;0.20;;
27313;SDS011;14800;48.174;9.798;2023-10-31T05:28:54;0.28;;;0.20;;
27313;SDS011;14800;48.174;9.798;2023-10-31T05:31:21;2.30;;;0.40;;
27313;SDS011;14800;48.174;9.798;2023-10-31T05:33:47;0.55;;;0.20;;
27313;SDS011;14800;48.174;9.798;2023-10-31T05:36:19;2.90;;;0.40;;
27313;SDS011;14800;48.174;9.798;2023-10-31T05:38:50;2.42;;;0.47;;
27313;SDS011;14800;48.174;9.798;2023-10-31T05:41:16;0.85;;;0.40;;
27313;SDS011;14800;48.174;9.798;2023-10-31T05:43:42;2.67;;;0.50;;
27313;SDS011;14800;48.174;9.798;2023-10-31T05:46:07;0.90;;;0.45;;
27313;SDS011;14800;48.174;9.798;2023-10-31T05:48:39;2.50;;;0.38;;
27313;SDS011;14800;48.174;9.798;2023-10-31T05:51:14;0.98;;;0.47;;
27313;SDS011;14800;48.174;9.798;2023-10-31T05:53:42;1.00;;;0.30;;
27313;SDS011;14800;48.174;9.798;2023-10-31T05:56:09;0.90;;;0.47;;
27313;SDS011;14800;48.174;9.798;2023-10-31T05:58:39;1.52;;;0.57;;
27313;SDS011;14800;48.174;9.798;2023-10-31T06:01:05;1.17;;;0.35;;
27313;SDS011;14800;48.174;9.798;2023-10-31T06:03:31;1.40;;;0.40;;
27313;SDS011;14800;48.174;9.798;2023-10-31T06:05:57;0.55;;;0.40;;
27313;SDS011;14800;48.174;9.798;2023-10-31T06:08:23;1.02;;;0.40;;
27313;SDS011;14800;48.174;9.798;2023-10-31T06:10:49;0.90;;;0.40;;
27313;SDS011;14800;48.174;9.798;2023-10-31T06:13:16;1.33;;;0.47;;
27313;SDS011;14800;48.174;9.798;2023-10-31T06:15:41;1.05;;;0.38;;
27313;SDS011;14800;48.174;9.798;2023-10-31T06:18:07;1.13;;;0.40;;
27313;SDS011;14800;48.174;9.798;2023-10-31T06:20:33;0.93;;;0.40;;
27313;SDS011;14800;48.174;9.798;2023-10-31T06:23:00;1.02;;;0.50;;
27313;SDS011;14800;48.174;9.798;2023-10-31T06:25:28;1.95;;;0.50;;
27313;SDS011;14800;48.174;9.798;2023-10-31T06:27:54;0.90;;;0.70;;
27313;SDS011;14800;48.174;9.798;2023-10-31T06:30:20;1.13;;;0.80;;
27313;SDS011;14800;48.174;9.798;2023-10-31T06:32:46;2.35;;;0.68;;
27313;SDS011;14800;48.174;9.798;2023-10-31T06:35:11;1.15;;;0.57;;
27313;SDS011;14800;48.174;9.798;2023-10-31T06:37:37;2.20;;;0.40;;
27313;SDS011;14800;48.174;9.798;2023-10-31T06:40:03;2.30;;;0.50;;
27313;SDS011;14800;48.174;9.798;2023-10-31T06:42:30;1.25;;;0.50;;
27313;SDS011;14800;48.174;9.798;2023-10-31T06:44:55;1.02;;;0.70;;
27313;SDS011;14800;48.174;9.798;2023-10-31T06:47:21;0.98;;;0.73;;
27313;SDS011;14800;48.174;9.798;2023-10-31T06:49:46;1.05;;;0.60;;
27313;SDS011;14800;48.174;9.798;2023-10-31T06:52:12;1.40;;;0.57;;
27313;SDS011;14800;48.174;9.798;2023-10-31T06:54:37;1.45;;;0.50;;
27313;SDS011;14800;48.174;9.798;2023-10-31T06:57:03;2.08;;;0.80;;
27313;SDS011;14800;48.174;9.798;2023-10-31T06:59:29;1.75;;;0.52;;
27313;SDS011;14800;48.174;9.798;2023-10-31T07:01:54;1.35;;;0.35;;
27313;SDS011;14800;48.174;9.798;2023-10-31T07:04:20;1.90;;;0.60;;
27313;SDS011;14800;48.174;9.798;2023-10-31T07:06:46;2.70;;;0.60;;
27313;SDS011;14800;48.174;9.798;2023-10-31T07:09:11;1.85;;;0.60;;
27313;SDS011;14800;48.174;9.798;2023-10-31T07:11:37;2.05;;;0.82;;
27313;SDS011;14800;48.174;9.798;2023-10-31T07:14:02;1.88;;;0.50;;
27313;SDS011;14800;48.174;9.798;2023-10-31T07:16:28;1.50;;;0.40;;
27313;SDS011;14800;48.174;9.798;2023-10-31T07:18:57;3.00;;;0.70;;
27313;SDS011;14800;48.174;9.798;2023-10-31T07:21:22;3.30;;;0.70;;
27313;SDS011;14800;48.174;9.798;2023-10-31T07:23:48;3.90;;;0.70;;
27313;SDS011;14800;48.174;9.798;2023-10-31T07:26:14;2.65;;;0.73;;
27313;SDS011;14800;48.174;9.798;2023-10-31T07:28:40;2.42;;;0.80;;
27313;SDS011;14800;48.174;9.798;2023-10-31T07:31:06;1.85;;;1.10;;
27313;SDS011;14800;48.174;9.798;2023-10-31T07:33:32;5.78;;;1.08;;
27313;SDS011;14800;48.174;9.798;2023-10-31T07:35:57;3.78;;;1.42;;
27313;SDS011;14800;48.174;9.798;2023-10-31T07:38:23;2.55;;;1.17;;
27313;SDS011;14800;48.174;9.798;2023-10-31T07:40:48;1.58;;;0.80;;
27313;SDS011;14800;48.174;9.798;2023-10-31T07:43:15;2.60;;;0.98;;
27313;SDS011;14800;48.174;9.798;2023-10-31T07:45:41;2.17;;;0.68;;
27313;SDS011;14800;48.174;9.798;2023-10-31T07:48:07;8.10;;;0.95;;
27313;SDS011;14800;48.174;9.798;2023-10-31T07:50:33;3.55;;;0.70;;
27313;SDS011;14800;48.174;9.798;2023-10-31T07:52:59;3.63;;;0.80;;
27313;SDS011;14800;48.174;9.798;2023-10-31T07:55:24;3.72;;;0.70;;
27313;SDS011;14800;48.174;9.798;2023-10-31T07:57:50;1.42;;;0.90;;
27313;SDS011;14800;48.174;9.798;2023-10-31T08:00:16;2.67;;;0.60;;
27313;SDS011;14800;48.174;9.798;2023-10-31T08:02:41;2.50;;;0.57;;
27313;SDS011;14800;48.174;9.798;2023-10-31T08:05:07;1.42;;;0.55;;
27313;SDS011;14800;48.174;9.798;2023-10-31T08:07:33;2.10;;;0.60;;
27313;SDS011;14800;48.174;9.798;2023-10-31T08:09:58;2.70;;;0.70;;
27313;SDS011;14800;48.174;9.798;2023-10-31T08:12:24;2.83;;;0.93;;
27313;SDS011;14800;48.174;9.798;2023-10-31T08:14:49;3.38;;;1.55;;
27313;SDS011;14800;48.174;9.798;2023-10-31T08:17:15;3.03;;;1.10;;
27313;SDS011;14800;48.174;9.798;2023-10-31T08:19:41;2.85;;;0.80;;
27313;SDS011;14800;48.174;9.798;2023-10-31T08:22:07;3.75;;;0.95;;
27313;SDS011;14800;48.174;9.798;2023-10-31T08:24:33;4.35;;;0.70;;
27313;SDS011;14800;48.174;9.798;2023-10-31T08:27:01;3.28;;;0.80;;
27313;SDS011;14800;48.174;9.798;2023-10-31T08:29:27;1.92;;;0.63;;
27313;SDS011;14800;48.174;9.798;2023-10-31T08:31:52;3.33;;;0.77;;
27313;SDS011;14800;48.174;9.798;2023-10-31T08:34:18;1.83;;;0.60;;
27313;SDS011;14800;48.174;9.798;2023-10-31T08:36:43;1.35;;;0.80;;
27313;SDS011;14800;48.174;9.798;2023-10-31T08:39:09;3.25;;;0.82;;
27313;SDS011;14800;48.174;9.798;2023-10-31T08:41:34;3.00;;;0.82;;
27313;SDS011;14800;48.174;9.798;2023-10-31T08:44:02;3.47;;;0.52;;
27313;SDS011;14800;48.174;9.798;2023-10-31T08:46:28;5.40;;;0.85;;
27313;SDS011;14800;48.174;9.798;2023-10-31T08:48:54;3.35;;;0.70;;
27313;SDS011;14800;48.174;9.798;2023-10-31T08:51:19;2.28;;;0.75;;
27313;SDS011;14800;48.174;9.798;2023-10-31T08:53:45;1.13;;;0.60;;
27313;SDS011;14800;48.174;9.798;2023-10-31T08:56:10;2.42;;;0.60;;
27313;SDS011;14800;48.174;9.798;2023-10-31T08:58:36;2.67;;;0.73;;
27313;SDS011;14800;48.174;9.798;2023-10-31T09:01:01;7.68;;;1.02;;
27313;SDS011;14800;48.174;9.798;2023-10-31T09:03:27;1.30;;;0.93;;
27313;SDS011;14800;48.174;9.798;2023-10-31T09:05:53;2.13;;;0.60;;
27313;SDS011;14800;48.174;9.798;2023-10-31T09:08:18;2.00;;;0.70;;
27313;SDS011;14800;48.174;9.798;2023-10-31T09:10:44;1.75;;;0.52;;
27313;SDS011;14800;48.174;9.798;2023-10-31T09:13:11;2.78;;;0.85;;
27313;SDS011;14800;48.174;9.798;2023-10-31T09:15:37;2.85;;;0.85;;
27313;SDS011;14800;48.174;9.798;2023-10-31T09:18:03;2.80;;;0.70;;
27313;SDS011;14800;48.174;9.798;2023-10-31T09:20:29;2.00;;;0.60;;
27313;SDS011;14800;48.174;9.798;2023-10-31T09:22:55;2.70;;;0.75;;
27313;SDS011;14800;48.174;9.798;2023-10-31T09:25:21;4.10;;;0.80;;
27313;SDS011;14800;48.174;9.798;2023-10-31T09:27:47;1.58;;;0.60;;
27313;SDS011;14800;48.174;9.798;2023-10-31T09:30:12;2.88;;;0.70;;
27313;SDS011;14800;48.174;9.798;2023-10-31T09:32:38;4.55;;;0.98;;
27313;SDS011;14800;48.174;9.798;2023-10-31T09:35:03;4.20;;;0.80;;
27313;SDS011;14800;48.174;9.798;2023-10-31T09:37:29;2.63;;;0.80;;
27313;SDS011;14800;48.174;9.798;2023-10-31T09:39:55;2.70;;;0.77;;
27313;SDS011;14800;48.174;9.798;2023-10-31T09:42:20;2.88;;;0.77;;
27313;SDS011;14800;48.174;9.798;2023-10-31T09:44:46;1.33;;;0.60;;
27313;SDS011;14800;48.174;9.798;2023-10-31T09:47:12;2.42;;;0.50;;
27313;SDS011;14800;48.174;9.798;2023-10-31T09:49:37;1.88;;;0.80;;
27313;SDS011;14800;48.174;9.798;2023-10-31T09:52:03;2.35;;;0.65;;
27313;SDS011;14800;48.174;9.798;2023-10-31T09:54:29;2.30;;;0.60;;
27313;SDS011;14800;48.174;9.798;2023-10-31T09:56:55;3.47;;;0.85;;
27313;SDS011;14800;48.174;9.798;2023-10-31T09:59:20;0.95;;;0.60;;
27313;SDS011;14800;48.174;9.798;2023-10-31T10:01:46;2.50;;;0.90;;
27313;SDS011;14800;48.174;9.798;2023-10-31T10:04:11;1.42;;;0.52;;
27313;SDS011;14800;48.174;9.798;2023-10-31T10:06:49;1.85;;;0.68;;
27313;SDS011;14800;48.174;9.798;2023-10-31T10:09:15;3.75;;;0.85;;
27313;SDS011;14800;48.174;9.798;2023-10-31T10:11:41;1.95;;;0.90;;
27313;SDS011;14800;48.174;9.798;2023-10-31T10:14:06;2.78;;;0.80;;
27313;SDS011;14800;48.174;9.798;2023-10-31T10:16:34;4.07;;;1.00;;
27313;SDS011;14800;48.174;9.798;2023-10-31T10:19:21;1.92;;;0.70;;
27313;SDS011;14800;48.174;9.798;2023-10-31T10:21:51;4.35;;;0.75;;
27313;SDS011;14800;48.174;9.798;2023-10-31T10:24:21;2.78;;;0.60;;
27313;SDS011;14800;48.174;9.798;2023-10-31T10:26:47;3.45;;;0.50;;
27313;SDS011;14800;48.174;9.798;2023-10-31T10:29:14;1.40;;;0.70;;
27313;SDS011;14800;48.174;9.798;2023-10-31T10:31:40;5.60;;;0.93;;
27313;SDS011;14800;48.174;9.798;2023-10-31T10:34:07;1.30;;;0.60;;
27313;SDS011;14800;48.174;9.798;2023-10-31T10:36:38;3.22;;;0.77;;
27313;SDS011;14800;48.174;9.798;2023-10-31T10:39:04;0.60;;;0.40;;
27313;SDS011;14800;48.174;9.798;2023-10-31T10:41:33;2.13;;;0.85;;
27313;SDS011;14800;48.174;9.798;2023-10-31T10:44:06;4.95;;;0.80;;
27313;SDS011;14800;48.174;9.798;2023-10-31T10:46:34;0.80;;;0.47;;
27313;SDS011;14800;48.174;9.798;2023-10-31T10:49:04;2.70;;;0.50;;
27313;SDS011;14800;48.174;9.798;2023-10-31T10:51:52;1.38;;;0.45;;
27313;SDS011;14800;48.174;9.798;2023-10-31T10:54:28;2.65;;;0.55;;
27313;SDS011;14800;48.174;9.798;2023-10-31T10:57:03;1.33;;;0.35;;
27313;SDS011;14800;48.174;9.798;2023-10-31T10:59:42;1.05;;;0.30;;
27313;SDS011;14800;48.174;9.798;2023-10-31T11:02:14;1.15;;;0.30;;
27313;SDS011;14800;48.174;9.798;2023-10-31T11:04:40;0.40;;;0.20;;
27313;SDS011;14800;48.174;9.798;2023-10-31T11:07:07;1.02;;;0.38;;
27313;SDS011;14800;48.174;9.798;2023-10-31T11:09:33;0.68;;;0.20;;
27313;SDS011;14800;48.174;9.798;2023-10-31T11:11:59;0.30;;;0.30;;
27313;SDS011;14800;48.174;9.798;2023-10-31T11:14:27;1.45;;;0.30;;
27313;SDS011;14800;48.174;9.798;2023-10-31T11:16:55;1.08;;;0.35;;
27313;SDS011;14800;48.174;9.798;2023-10-31T11:19:24;2.70;;;0.30;;
27313;SDS011;14800;48.174;9.798;2023-10-31T11:21:53;0.80;;;0.30;;
27313;SDS011;14800;48.174;9.798;2023-10-31T11:24:26;0.30;;;0.22;;
27313;SDS011;14800;48.174;9.798;2023-10-31T11:27:03;1.05;;;0.50;;
27313;SDS011;14800;48.174;9.798;2023-10-31T11:29:30;0.93;;;0.40;;
27313;SDS011;14800;48.174;9.798;2023-10-31T11:31:57;0.70;;;0.50;;
27313;SDS011;14800;48.174;9.798;2023-10-31T11:34:26;1.13;;;0.50;;
27313;SDS011;14800;48.174;9.798;2023-10-31T11:36:52;1.52;;;0.50;;
27313;SDS011;14800;48.174;9.798;2023-10-31T11:39:18;1.05;;;0.70;;
27313;SDS011;14800;48.174;9.798;2023-10-31T11:41:54;0.93;;;0.60;;
27313;SDS011;14800;48.174;9.798;2023-10-31T11:44:27;1.20;;;0.63;;
27313;SDS011;14800;48.174;9.798;2023-10-31T11:46:53;2.70;;;1.35;;
27313;SDS011;14800;48.174;9.798;2023-10-31T11:52:16;1.85;;;0.80;;
27313;SDS011;14800;48.174;9.798;2023-10-31T11:54:42;0.70;;;0.70;;
27313;SDS011;14800;48.174;9.798;2023-10-31T11:57:08;1.48;;;0.52;;
27313;SDS011;14800;48.174;9.798;2023-10-31T11:59:37;1.50;;;0.60;;
27313;SDS011;14800;48.174;9.798;2023-10-31T12:02:16;1.58;;;0.50;;
27313;SDS011;14800;48.174;9.798;2023-10-31T12:04:43;2.08;;;0.70;;
27313;SDS011;14800;48.174;9.798;2023-10-31T12:07:09;1.38;;;0.57;;
27313;SDS011;14800;48.174;9.798;2023-10-31T12:09:47;0.60;;;0.60;;
27313;SDS011;14800;48.174;9.798;2023-10-31T12:12:13;1.98;;;0.70;;
27313;SDS011;14800;48.174;9.798;2023-10-31T12:14:39;2.70;;;0.60;;
27313;SDS011;14800;48.174;9.798;2023-10-31T12:17:05;3.17;;;1.00;;
27313;SDS011;14800;48.174;9.798;2023-10-31T12:19:35;0.60;;;0.60;;
27313;SDS011;14800;48.174;9.798;2023-10-31T12:22:01;0.93;;;0.70;;
27313;SDS011;14800;48.174;9.798;2023-10-31T12:24:28;1.83;;;0.65;;
27313;SDS011;14800;48.174;9.798;2023-10-31T12:26:53;0.75;;;0.60;;
27313;SDS011;14800;48.174;9.798;2023-10-31T12:29:20;2.25;;;0.52;;
27313;SDS011;14800;48.174;9.798;2023-10-31T12:31:47;1.13;;;0.57;;
27313;SDS011;14800;48.174;9.798;2023-10-31T12:34:23;1.48;;;0.80;;
27313;SDS011;14800;48.174;9.798;2023-10-31T12:36:53;1.38;;;0.80;;
27313;SDS011;14800;48.174;9.798;2023-10-31T12:39:23;1.73;;;0.60;;
27313;SDS011;14800;48.174;9.798;2023-10-31T12:41:53;1.10;;;0.70;;
27313;SDS011;14800;48.174;9.798;2023-10-31T12:44:23;1.50;;;0.80;;
27313;SDS011;14800;48.174;9.798;2023-10-31T12:46:50;2.08;;;0.60;;
27313;SDS011;14800;48.174;9.798;2023-10-31T12:49:17;0.90;;;0.60;;
27313;SDS011;14800;48.174;9.798;2023-10-31T12:54:37;1.58;;;0.55;;
27313;SDS011;14800;48.174;9.798;2023-10-31T12:57:06;2.28;;;0.60;;
27313;SDS011;14800;48.174;9.798;2023-10-31T12:59:33;2.08;;;0.40;;
27313;SDS011;14800;48.174;9.798;2023-10-31T13:02:01;1.10;;;0.40;;
27313;SDS011;14800;48.174;9.798;2023-10-31T13:04:28;2.03;;;0.82;;
27313;SDS011;14800;48.174;9.798;2023-10-31T13:07:05;1.88;;;1.10;;
27313;SDS011;14800;48.174;9.798;2023-10-31T13:09:32;4.18;;;0.60;;
27313;SDS011;14800;48.174;9.798;2023-10-31T13:12:01;1.17;;;0.50;;
27313;SDS011;14800;48.174;9.798;2023-10-31T13:14:28;1.02;;;0.43;;
27313;SDS011;14800;48.174;9.798;2023-10-31T13:16:54;1.67;;;0.60;;
27313;SDS011;14800;48.174;9.798;2023-10-31T13:19:19;1.17;;;0.47;;
27313;SDS011;14800;48.174;9.798;2023-10-31T13:21:46;1.08;;;0.50;;
27313;SDS011;14800;48.174;9.798;2023-10-31T13:24:12;1.45;;;0.55;;
27313;SDS011;14800;48.174;9.798;2023-10-31T13:26:38;1.08;;;0.45;;
27313;SDS011;14800;48.174;9.798;2023-10-31T13:29:04;1.92;;;0.40;;
27313;SDS011;14800;48.174;9.798;2023-10-31T13:31:29;2.45;;;0.60;;
27313;SDS011;14800;48.174;9.798;2023-10-31T13:33:55;0.93;;;0.40;;
27313;SDS011;14800;48.174;9.798;2023-10-31T13:36:20;2.03;;;0.30;;
27313;SDS011;14800;48.174;9.798;2023-10-31T13:38:47;1.17;;;0.40;;
27313;SDS011;14800;48.174;9.798;2023-10-31T13:41:13;0.60;;;0.40;;
27313;SDS011;14800;48.174;9.798;2023-10-31T13:43:39;0.63;;;0.35;;
27313;SDS011;14800;48.174;9.798;2023-10-31T13:46:05;1.65;;;0.50;;
27313;SDS011;14800;48.174;9.798;2023-10-31T13:48:31;1.27;;;0.50;;
27313;SDS011;14800;48.174;9.798;2023-10-31T13:50:57;1.50;;;0.50;;
27313;SDS011;14800;48.174;9.798;2023-10-31T13:53:22;1.58;;;0.52;;
27313;SDS011;14800;48.174;9.798;2023-10-31T13:55:48;1.50;;;0.60;;
27313;SDS011;14800;48.174;9.798;2023-10-31T13:58:14;1.33;;;0.52;;
27313;SDS011;14800;48.174;9.798;2023-10-31T14:00:39;2.05;;;0.73;;
27313;SDS011;14800;48.174;9.798;2023-10-31T14:03:05;1.23;;;0.60;;
27313;SDS011;14800;48.174;9.798;2023-10-31T14:05:31;1.20;;;0.57;;
27313;SDS011;14800;48.174;9.798;2023-10-31T14:07:56;0.63;;;0.30;;
27313;SDS011;14800;48.174;9.798;2023-10-31T14:10:22;1.63;;;0.60;;
27313;SDS011;14800;48.174;9.798;2023-10-31T14:12:49;0.88;;;0.60;;
27313;SDS011;14800;48.174;9.798;2023-10-31T14:15:15;1.25;;;0.70;;
27313;SDS011;14800;48.174;9.798;2023-10-31T14:17:41;0.82;;;0.50;;
27313;SDS011;14800;48.174;9.798;2023-10-31T14:20:06;2.35;;;0.50;;
27313;SDS011;14800;48.174;9.798;2023-10-31T14:22:33;2.05;;;0.50;;
27313;SDS011;14800;48.174;9.798;2023-10-31T14:24:58;1.98;;;0.40;;
27313;SDS011;14800;48.174;9.798;2023-10-31T14:27:24;1.35;;;0.50;;
27313;SDS011;14800;48.174;9.798;2023-10-31T14:29:49;0.82;;;0.30;;
27313;SDS011;14800;48.174;9.798;2023-10-31T14:32:17;0.60;;;0.50;;
27313;SDS011;14800;48.174;9.798;2023-10-31T14:34:43;1.00;;;0.30;;
27313;SDS011;14800;48.174;9.798;2023-10-31T14:37:08;0.98;;;0.40;;
27313;SDS011;14800;48.174;9.798;2023-10-31T14:39:34;0.70;;;0.40;;
27313;SDS011;14800;48.174;9.798;2023-10-31T14:42:00;0.70;;;0.40;;
27313;SDS011;14800;48.174;9.798;2023-10-31T14:44:25;0.93;;;0.30;;
27313;SDS011;14800;48.174;9.798;2023-10-31T14:46:51;1.02;;;0.40;;
27313;SDS011;14800;48.174;9.798;2023-10-31T14:49:16;0.88;;;0.50;;